Time;durP1;ratioP1;P1;durP2;ratioP2;P2;SDS_P1;SDS_P2;PMS_P1;PMS_P2;Temp;Humidity;BMP_temperature;BMP_pressure;BME280_temperature;BME280_humidity;BME280_pressure;Samples;Min_cycle;Max_cycle;Signal;HPM_P1;HPM_P2
2021/10/19 00:00:12;;;;;;;323.88;71.45;;;;;;;5.41;100.00;96899.28;1024059;29;20350;-51
2021/10/19 00:00:43;;;;;;;311.95;66.18;;;;;;;5.43;100.00;96902.66;1020669;29;20015;-52
2021/10/19 00:01:14;;;;;;;316.50;64.30;;;;;;;5.34;100.00;96897.78;1025080;29;20737;-52
2021/10/19 00:01:47;;;;;;;470.88;85.05;;;;;;;5.36;100.00;96898.59;1025223;29;20019;-52
2021/10/19 00:02:18;;;;;;;248.65;66.32;;;;;;;5.33;100.00;96899.53;1025762;28;20049;-51
2021/10/19 00:02:49;;;;;;;142.65;51.03;;;;;;;5.40;100.00;96902.75;1029397;28;20261;-53
2021/10/19 00:03:19;;;;;;;211.85;62.88;;;;;;;5.38;100.00;96892.41;1028909;28;20019;-51
2021/10/19 00:03:50;;;;;;;247.27;64.32;;;;;;;5.36;100.00;96901.19;1025490;28;20027;-52
2021/10/19 00:04:21;;;;;;;184.68;56.40;;;;;;;5.30;100.00;96901.41;1025272;28;20012;-51
2021/10/19 00:04:52;;;;;;;218.82;62.90;;;;;;;5.31;100.00;96903.06;1028885;28;20023;-50
2021/10/19 00:05:22;;;;;;;221.63;62.63;;;;;;;5.21;100.00;96900.78;1037206;28;20268;-52
2021/10/19 00:05:53;;;;;;;223.40;61.45;;;;;;;5.20;100.00;96896.50;1028773;28;20057;-52
2021/10/19 00:06:23;;;;;;;189.65;56.53;;;;;;;5.13;100.00;96902.81;1017229;29;20046;-51
2021/10/19 00:06:54;;;;;;;235.70;63.70;;;;;;;5.11;100.00;96908.97;1017200;29;20140;-50
2021/10/19 00:07:25;;;;;;;226.52;62.47;;;;;;;5.02;100.00;96912.69;1024944;29;20488;-52
2021/10/19 00:07:56;;;;;;;171.48;54.65;;;;;;;5.05;100.00;96910.00;1025876;28;20023;-52
2021/10/19 00:08:26;;;;;;;163.07;56.83;;;;;;;5.05;100.00;96908.25;1029498;28;20460;-52
2021/10/19 00:08:57;;;;;;;177.60;57.65;;;;;;;5.04;100.00;96901.34;1021423;28;20548;-52
2021/10/19 00:09:28;;;;;;;254.00;67.22;;;;;;;5.02;100.00;96905.75;1028993;28;20015;-51
2021/10/19 00:09:59;;;;;;;231.30;64.50;;;;;;;5.05;100.00;96907.41;1032871;28;20038;-51
2021/10/19 00:10:29;;;;;;;232.02;63.20;;;;;;;4.97;100.00;96906.81;1033130;28;20378;-52
2021/10/19 00:11:00;;;;;;;189.75;59.15;;;;;;;4.93;100.00;96902.63;1033378;28;20249;-52
2021/10/19 00:11:31;;;;;;;195.10;57.05;;;;;;;4.89;100.00;96901.84;1033083;28;20097;-52
2021/10/19 00:12:01;;;;;;;198.65;57.97;;;;;;;4.97;100.00;96906.81;1025136;29;20070;-52
2021/10/19 00:12:32;;;;;;;163.68;52.53;;;;;;;4.87;100.00;96904.50;1016787;29;20020;-51
2021/10/19 00:13:03;;;;;;;241.40;63.35;;;;;;;4.89;100.00;96901.84;1017092;29;20016;-51
2021/10/19 00:13:34;;;;;;;237.20;64.80;;;;;;;4.86;100.00;96908.00;1021033;29;20279;-51
2021/10/19 00:14:05;;;;;;;269.00;67.68;;;;;;;4.85;100.00;96911.50;1028932;28;20040;-53
2021/10/19 00:14:35;;;;;;;124.68;48.60;;;;;;;4.92;100.00;96911.28;1028912;28;20035;-51
2021/10/19 00:15:09;;;;;;;167.40;56.83;;;;;;;4.90;100.00;96910.50;1017216;29;20020;-52
2021/10/19 00:15:39;;;;;;;129.75;50.60;;;;;;;4.86;100.00;96913.19;1021372;29;20019;-52
2021/10/19 00:16:10;;;;;;;69.57;39.95;;;;;;;4.83;100.00;96910.69;1020721;29;20267;-51
2021/10/19 00:16:41;;;;;;;80.15;42.63;;;;;;;4.82;100.00;96911.59;1020536;29;20467;-51
2021/10/19 00:17:11;;;;;;;71.57;40.78;;;;;;;4.80;100.00;96908.19;1021590;29;20115;-52
2021/10/19 00:17:43;;;;;;;61.90;38.13;;;;;;;4.81;100.00;96909.91;1029341;28;20047;-52
2021/10/19 00:18:14;;;;;;;81.38;44.15;;;;;;;4.73;100.00;96905.84;1033535;28;20017;-51
2021/10/19 00:18:44;;;;;;;71.65;40.85;;;;;;;4.73;100.00;96908.44;1033165;28;20634;-52
2021/10/19 00:19:15;;;;;;;77.55;43.50;;;;;;;4.74;100.00;96908.38;1032434;28;20105;-52
2021/10/19 00:19:46;;;;;;;71.78;41.53;;;;;;;4.69;100.00;96910.28;1024989;28;20501;-52
2021/10/19 00:20:17;;;;;;;77.95;44.13;;;;;;;4.66;100.00;96912.97;1025230;28;20011;-51
2021/10/19 00:20:47;;;;;;;80.13;43.00;;;;;;;4.61;100.00;96905.31;1028591;28;20019;-52
2021/10/19 00:21:18;;;;;;;70.50;41.60;;;;;;;4.67;100.00;96906.88;1025103;28;20350;-51
2021/10/19 00:21:49;;;;;;;62.03;38.58;;;;;;;4.67;100.00;96912.06;1028981;28;20011;-52
2021/10/19 00:22:20;;;;;;;71.50;41.38;;;;;;;4.63;100.00;96911.31;1020722;29;20047;-51
2021/10/19 00:22:50;;;;;;;74.15;42.60;;;;;;;4.62;100.00;96911.38;1024480;29;20110;-51
2021/10/19 00:23:21;;;;;;;74.07;41.42;;;;;;;4.57;100.00;96916.69;1021161;29;20082;-52
2021/10/19 00:23:52;;;;;;;65.60;39.97;;;;;;;4.56;100.00;96924.53;1021090;29;20114;-50
2021/10/19 00:24:24;;;;;;;74.05;42.55;;;;;;;4.52;100.00;96916.00;1016934;29;20027;-52
2021/10/19 00:24:55;;;;;;;71.95;41.38;;;;;;;4.59;100.00;96924.44;1021682;29;20528;-50
2021/10/19 00:25:25;;;;;;;62.88;38.75;;;;;;;4.58;100.00;96915.81;1029381;28;20270;-52
2021/10/19 00:25:56;;;;;;;66.75;40.75;;;;;;;4.64;100.00;96918.22;1029439;28;20558;-51
2021/10/19 00:26:27;;;;;;;101.88;47.38;;;;;;;4.62;100.00;96920.00;1028952;28;20053;-52
2021/10/19 00:26:57;;;;;;;116.72;49.33;;;;;;;4.55;100.00;96920.25;1029120;28;20015;-51
2021/10/19 00:27:28;;;;;;;99.18;45.53;;;;;;;4.55;100.00;96920.25;1025013;28;20454;-51
2021/10/19 00:27:59;;;;;;;100.68;47.10;;;;;;;4.55;100.00;96918.50;1028701;28;20031;-51
2021/10/19 00:28:29;;;;;;;103.35;46.47;;;;;;;4.55;100.00;96925.44;1024891;28;20023;-51
2021/10/19 00:29:00;;;;;;;83.85;40.22;;;;;;;4.57;100.00;96921.91;1025185;28;20137;-51
2021/10/19 00:29:31;;;;;;;79.57;40.15;;;;;;;4.61;100.00;96928.69;1024910;29;20033;-51
2021/10/19 00:30:04;;;;;;;169.85;55.95;;;;;;;4.55;100.00;96921.09;1025199;29;20016;-51
2021/10/19 00:30:34;;;;;;;183.48;58.17;;;;;;;4.53;100.00;96924.66;1028778;28;20300;-52
2021/10/19 00:31:05;;;;;;;214.48;62.50;;;;;;;4.59;100.00;96924.44;1028811;28;20266;-52
2021/10/19 00:31:36;;;;;;;102.28;38.55;;;;;;;4.67;100.00;96922.44;1028910;28;20578;-52
2021/10/19 00:32:06;;;;;;;67.85;37.75;;;;;;;4.64;100.00;96923.41;1020998;29;20138;-50
2021/10/19 00:32:38;;;;;;;82.53;42.83;;;;;;;4.66;100.00;96923.38;1017261;29;20024;-51
2021/10/19 00:33:09;;;;;;;156.65;53.72;;;;;;;4.69;100.00;96920.66;1020746;29;20195;-50
2021/10/19 00:33:40;;;;;;;184.30;58.22;;;;;;;4.68;100.00;96918.97;1020705;29;20784;-52
2021/10/19 00:34:10;;;;;;;144.02;54.05;;;;;;;4.63;100.00;96920.84;1021094;29;20048;-50
2021/10/19 00:34:41;;;;;;;168.65;56.78;;;;;;;4.64;100.00;96918.22;1024846;29;20273;-50
2021/10/19 00:35:12;;;;;;;205.05;63.47;;;;;;;4.68;100.00;96921.56;1024659;29;20011;-52
2021/10/19 00:35:42;;;;;;;201.85;61.35;;;;;;;4.68;100.00;96917.22;1024782;29;20054;-50
2021/10/19 00:36:13;;;;;;;171.35;59.47;;;;;;;4.70;100.00;96932.75;1028745;28;20018;-50
2021/10/19 00:36:44;;;;;;;247.50;69.70;;;;;;;4.59;100.00;96922.69;1024806;28;20066;-50
2021/10/19 00:37:14;;;;;;;269.15;68.22;;;;;;;4.54;100.00;96924.56;1024486;29;20042;-52
2021/10/19 00:37:45;;;;;;;260.17;69.15;;;;;;;4.49;100.00;96931.66;1020839;29;20297;-51
2021/10/19 00:38:16;;;;;;;264.10;68.53;;;;;;;4.52;100.00;96930.72;1024749;29;20046;-51
2021/10/19 00:38:46;;;;;;;286.58;67.70;;;;;;;4.46;100.00;96929.16;1024936;28;20106;-51
2021/10/19 00:39:17;;;;;;;275.77;66.95;;;;;;;4.44;100.00;96926.59;1020744;28;20056;-51
2021/10/19 00:39:48;;;;;;;353.95;80.00;;;;;;;4.45;100.00;96928.31;1020618;29;20060;-53
2021/10/19 00:40:18;;;;;;;290.25;67.32;;;;;;;4.50;100.00;96935.09;1024520;29;20026;-51
2021/10/19 00:40:49;;;;;;;377.48;78.57;;;;;;;4.47;100.00;96934.31;1028378;28;20026;-51
2021/10/19 00:41:22;;;;;;;154.45;48.78;;;;;;;4.52;100.00;96933.31;1024572;28;20023;-52
2021/10/19 00:41:53;;;;;;;131.73;46.58;;;;;;;4.55;100.00;96930.63;1020592;29;20263;-50
2021/10/19 00:42:24;;;;;;;201.25;59.15;;;;;;;4.51;100.00;96936.81;1024818;29;20271;-50
2021/10/19 00:42:54;;;;;;;314.58;71.43;;;;;;;4.48;100.00;96933.41;1024711;29;20111;-51
2021/10/19 00:43:26;;;;;;;295.15;67.28;;;;;;;4.47;100.00;96933.47;1024738;29;20161;-52
2021/10/19 00:43:57;;;;;;;228.63;56.05;;;;;;;4.44;100.00;96939.56;1025268;28;20031;-51
2021/10/19 00:44:28;;;;;;;309.40;68.43;;;;;;;4.44;100.00;96942.19;1021165;29;20267;-51
2021/10/19 00:44:58;;;;;;;170.48;49.83;;;;;;;4.48;100.00;96935.16;1024605;29;20026;-52
2021/10/19 00:45:29;;;;;;;227.50;59.80;;;;;;;4.51;100.00;96929.03;1028883;28;20117;-51
2021/10/19 00:46:00;;;;;;;264.60;68.45;;;;;;;4.54;100.00;96939.31;1024896;29;20475;-52
2021/10/19 00:46:31;;;;;;;189.43;60.28;;;;;;;4.55;100.00;96936.66;1024760;29;20023;-51
2021/10/19 00:47:01;;;;;;;193.52;59.50;;;;;;;4.55;100.00;96933.22;1024891;29;20086;-51
2021/10/19 00:47:33;;;;;;;185.52;59.58;;;;;;;4.52;100.00;96928.97;1016669;29;20100;-51
2021/10/19 00:48:05;;;;;;;124.00;49.33;;;;;;;4.43;100.00;96929.25;1024566;29;20121;-50
2021/10/19 00:48:40;;;;;;;159.05;57.28;;;;;;;4.48;100.00;96935.16;1028909;28;20277;-51
2021/10/19 00:49:11;;;;;;;76.75;41.58;;;;;;;4.52;100.00;96930.72;1029370;28;20250;-52
2021/10/19 00:49:41;;;;;;;81.93;43.92;;;;;;;4.53;100.00;96927.25;1024839;29;20305;-51
2021/10/19 00:50:12;;;;;;;70.53;40.53;;;;;;;4.56;100.00;96929.72;1028923;28;20408;-51
2021/10/19 00:50:44;;;;;;;144.60;54.58;;;;;;;4.51;100.00;96931.63;1028990;28;20023;-52
2021/10/19 00:51:15;;;;;;;120.40;52.47;;;;;;;4.55;100.00;96933.22;1028930;28;20175;-51
2021/10/19 00:51:46;;;;;;;109.25;50.25;;;;;;;4.47;100.00;96928.28;1021083;29;20298;-51
2021/10/19 00:52:17;;;;;;;87.82;43.88;;;;;;;4.49;100.00;96931.66;1020933;29;20278;-52
2021/10/19 00:52:48;;;;;;;113.75;50.05;;;;;;;4.45;100.00;96925.72;1020846;29;20033;-52
2021/10/19 00:53:19;;;;;;;98.35;47.85;;;;;;;4.40;100.00;96914.63;1020978;29;20276;-51
2021/10/19 00:53:50;;;;;;;100.22;47.70;;;;;;;4.40;100.00;96924.16;1024806;29;20760;-51
2021/10/19 00:54:23;;;;;;;99.00;47.70;;;;;;;4.39;100.00;96923.31;1028831;28;20049;-52
2021/10/19 00:54:54;;;;;;;110.15;46.67;;;;;;;4.41;100.00;96926.72;1024975;29;20523;-52
2021/10/19 00:55:24;;;;;;;122.43;51.47;;;;;;;4.37;100.00;96924.25;1029534;28;20286;-53
2021/10/19 00:55:55;;;;;;;112.50;49.20;;;;;;;4.41;100.00;96916.34;1037031;28;20249;-51
2021/10/19 00:56:26;;;;;;;102.70;47.58;;;;;;;4.39;100.00;96923.31;1036879;28;20104;-50
2021/10/19 00:56:57;;;;;;;80.00;42.15;;;;;;;4.43;100.00;96927.53;1028958;28;20010;-51
2021/10/19 00:57:27;;;;;;;124.30;52.03;;;;;;;4.49;100.00;96923.88;1025002;28;20043;-52
2021/10/19 00:57:59;;;;;;;114.82;51.92;;;;;;;4.53;100.00;96915.09;1029064;28;20015;-51
2021/10/19 00:58:30;;;;;;;108.25;49.50;;;;;;;4.50;100.00;96919.53;1028768;28;20481;-51
2021/10/19 00:59:00;;;;;;;123.53;51.42;;;;;;;4.54;100.00;96921.97;1025067;29;20305;-50
2021/10/19 00:59:32;;;;;;;101.43;47.70;;;;;;;4.55;100.00;96915.91;1028578;28;20090;-52
2021/10/19 01:00:05;;;;;;;137.40;53.45;;;;;;;4.55;100.00;96915.06;1024748;29;20492;-51
2021/10/19 01:00:36;;;;;;;102.05;48.30;;;;;;;4.58;100.00;96907.16;1024877;29;20322;-51
2021/10/19 01:01:07;;;;;;;111.82;48.05;;;;;;;4.57;100.00;96914.09;1025713;28;20274;-52
2021/10/19 01:01:38;;;;;;;111.40;47.88;;;;;;;4.56;100.00;96906.38;1030009;28;20023;-51
2021/10/19 01:02:09;;;;;;;199.15;61.55;;;;;;;4.57;100.00;96908.06;1033110;28;20741;-51
2021/10/19 01:02:43;;;;;;;180.73;61.97;;;;;;;4.54;100.00;96906.41;1033127;28;20014;-51
2021/10/19 01:03:13;;;;;;;197.18;61.13;;;;;;;4.55;100.00;96910.72;1028802;28;20090;-52
2021/10/19 01:03:44;;;;;;;171.32;58.08;;;;;;;4.48;100.00;96906.59;1025246;28;20696;-51
2021/10/19 01:04:15;;;;;;;179.13;58.08;;;;;;;4.51;100.00;96905.69;1028874;28;20026;-52
2021/10/19 01:04:46;;;;;;;154.50;57.10;;;;;;;4.53;100.00;96898.69;1036852;28;20052;-51
2021/10/19 01:05:16;;;;;;;146.95;55.25;;;;;;;4.53;100.00;96901.28;1027694;28;20058;-50
2021/10/19 01:05:47;;;;;;;89.60;44.70;;;;;;;4.58;100.00;96902.84;1023857;29;20050;-52
2021/10/19 01:06:18;;;;;;;132.48;53.10;;;;;;;4.58;100.00;96902.84;1023726;29;20031;-50
2021/10/19 01:06:49;;;;;;;149.52;55.75;;;;;;;4.53;100.00;96899.53;1023899;29;20457;-50
2021/10/19 01:07:19;;;;;;;181.20;57.22;;;;;;;4.50;100.00;96891.00;1019796;29;20028;-51
2021/10/19 01:07:50;;;;;;;242.32;64.57;;;;;;;4.47;100.00;96900.56;1027713;28;20023;-50
2021/10/19 01:08:21;;;;;;;221.45;63.35;;;;;;;4.46;100.00;96895.41;1027662;28;20063;-50
2021/10/19 01:08:52;;;;;;;238.63;61.58;;;;;;;4.46;100.00;96895.41;1024241;29;20020;-51
2021/10/19 01:09:22;;;;;;;169.20;55.45;;;;;;;4.50;100.00;96891.84;1028391;28;20294;-51
2021/10/19 01:09:53;;;;;;;108.10;48.63;;;;;;;4.51;100.00;96896.13;1024300;29;20026;-51
2021/10/19 01:10:24;;;;;;;124.35;49.58;;;;;;;4.50;100.00;96891.84;1020549;28;20197;-51
2021/10/19 01:10:55;;;;;;;140.15;52.10;;;;;;;4.46;100.00;96898.03;1024782;29;20023;-51
2021/10/19 01:11:26;;;;;;;114.43;50.60;;;;;;;4.43;100.00;96892.91;1028825;28;20091;-51
2021/10/19 01:11:57;;;;;;;155.43;55.25;;;;;;;4.37;100.00;96899.13;1025135;28;20282;-51
2021/10/19 01:12:27;;;;;;;101.50;46.03;;;;;;;4.31;100.00;96883.78;1028537;28;20481;-51
2021/10/19 01:12:58;;;;;;;165.30;57.55;;;;;;;4.30;100.00;96884.69;1020492;29;20070;-51
2021/10/19 01:13:29;;;;;;;83.32;42.90;;;;;;;4.36;100.00;96884.47;1024637;29;20031;-50
2021/10/19 01:14:00;;;;;;;99.15;47.50;;;;;;;4.36;100.00;96894.88;1024654;29;20089;-50
2021/10/19 01:14:30;;;;;;;95.43;46.17;;;;;;;4.38;100.00;96890.47;1024610;29;20310;-51
2021/10/19 01:15:08;;;;;;;136.90;51.42;;;;;;;4.40;100.00;96893.03;1020996;29;20023;-50
2021/10/19 01:15:39;;;;;;;97.55;43.75;;;;;;;4.35;100.00;96895.75;1024701;29;20166;-51
2021/10/19 01:16:11;;;;;;;125.05;48.80;;;;;;;4.30;100.00;96887.28;1021156;29;20259;-52
2021/10/19 01:16:41;;;;;;;102.45;45.22;;;;;;;4.32;100.00;96889.78;1026095;28;20207;-51
2021/10/19 01:17:12;;;;;;;148.77;52.42;;;;;;;4.31;100.00;96891.56;1025161;28;20305;-51
2021/10/19 01:17:46;;;;;;;116.35;48.38;;;;;;;4.27;100.00;96893.38;1024788;29;20106;-51
2021/10/19 01:18:19;;;;;;;119.60;50.78;;;;;;;4.26;100.00;96893.44;1025245;29;20079;-51
2021/10/19 01:18:50;;;;;;;126.70;50.15;;;;;;;4.26;100.00;96896.03;1021492;29;20275;-52
2021/10/19 01:19:22;;;;;;;144.85;53.05;;;;;;;4.23;100.00;96898.72;1022854;28;20332;-51
2021/10/19 01:19:52;;;;;;;113.78;48.63;;;;;;;4.21;100.00;96900.53;1021082;29;20271;-51
2021/10/19 01:20:25;;;;;;;119.13;51.10;;;;;;;4.19;100.00;96903.16;1021902;28;20712;-51
2021/10/19 01:20:56;;;;;;;145.10;55.60;;;;;;;4.17;100.00;96897.16;1021390;29;20019;-52
2021/10/19 01:21:27;;;;;;;132.93;50.55;;;;;;;4.15;100.00;96904.16;1024731;29;20271;-51
2021/10/19 01:22:00;;;;;;;128.50;53.33;;;;;;;4.12;100.00;96906.81;1020973;29;20120;-52
2021/10/19 01:22:31;;;;;;;122.15;49.20;;;;;;;4.09;100.00;96906.91;1024754;29;20303;-51
2021/10/19 01:23:02;;;;;;;89.53;44.25;;;;;;;4.08;100.00;96902.63;1020521;29;20745;-50
2021/10/19 01:23:34;;;;;;;83.07;44.05;;;;;;;4.07;100.00;96911.28;1024833;29;20019;-52
2021/10/19 01:24:04;;;;;;;87.88;44.90;;;;;;;4.06;100.00;96901.81;1024909;29;20263;-52
2021/10/19 01:24:35;;;;;;;75.25;40.47;;;;;;;4.05;100.00;96902.69;1024644;29;20295;-50
2021/10/19 01:25:06;;;;;;;119.15;51.08;;;;;;;4.00;100.00;96899.41;1021212;29;20028;-51
2021/10/19 01:25:37;;;;;;;90.93;44.67;;;;;;;3.99;100.00;96902.88;1025295;28;20078;-51
2021/10/19 01:26:09;;;;;;;125.50;50.88;;;;;;;3.96;100.00;96900.38;1025103;28;20342;-51
2021/10/19 01:26:39;;;;;;;121.47;51.03;;;;;;;3.96;100.00;96901.25;1028888;28;20081;-51
2021/10/19 01:27:11;;;;;;;91.43;44.08;;;;;;;3.96;100.00;96900.38;1028832;28;20347;-53
2021/10/19 01:27:59;;;;;;;89.43;43.53;;;;;;;3.89;100.00;96903.16;1028888;28;20026;-51
2021/10/19 01:28:31;;;;;;;70.57;38.05;;;;;;;3.87;100.00;96902.34;1024874;29;20263;-50
2021/10/19 01:29:01;;;;;;;97.93;45.20;;;;;;;3.85;100.00;96898.94;1028987;28;20345;-51
2021/10/19 01:29:32;;;;;;;69.80;39.47;;;;;;;3.85;100.00;96898.94;1028064;28;20298;-52
2021/10/19 01:30:03;;;;;;;80.72;41.70;;;;;;;3.83;100.00;96900.72;1029733;28;20086;-51
2021/10/19 01:30:43;;;;;;;78.00;39.70;;;;;;;3.83;100.00;96898.13;1029689;28;20030;-51
2021/10/19 01:31:13;;;;;;;115.68;49.33;;;;;;;3.82;100.00;96906.78;1033644;28;20041;-52
2021/10/19 01:31:48;;;;;;;101.05;46.30;;;;;;;3.79;100.00;96906.91;1033481;28;20034;-52
2021/10/19 01:32:19;;;;;;;98.30;44.60;;;;;;;3.79;100.00;96904.31;1025677;29;20086;-51
2021/10/19 01:32:50;;;;;;;100.68;47.20;;;;;;;3.79;100.00;96908.63;1021479;29;20758;-51
2021/10/19 01:33:21;;;;;;;78.57;42.42;;;;;;;3.79;100.00;96895.66;1021540;29;20027;-51
2021/10/19 01:33:52;;;;;;;73.22;41.28;;;;;;;3.75;100.00;96896.66;1029651;28;20345;-50
2021/10/19 01:34:22;;;;;;;59.58;39.80;;;;;;;3.78;100.00;96904.34;1029317;28;20518;-51
2021/10/19 01:34:53;;;;;;;58.50;36.95;;;;;;;3.76;100.00;96899.19;1025233;29;20528;-51
2021/10/19 01:35:33;;;;;;;78.22;42.47;;;;;;;3.72;100.00;96899.31;1025411;28;20023;-50
2021/10/19 01:36:04;;;;;;;54.28;35.63;;;;;;;3.76;100.00;96901.78;1026691;28;20027;-52
2021/10/19 01:36:35;;;;;;;44.95;32.20;;;;;;;3.76;100.00;96899.19;1031497;28;20052;-52
2021/10/19 01:37:06;;;;;;;56.47;36.45;;;;;;;3.77;100.00;96894.84;1029719;28;20431;-51
2021/10/19 01:37:37;;;;;;;62.67;38.45;;;;;;;3.79;100.00;96890.47;1026020;28;20099;-52
2021/10/19 01:38:12;;;;;;;48.53;34.28;;;;;;;3.77;100.00;96887.94;1025776;28;20023;-51
2021/10/19 01:38:43;;;;;;;55.28;38.28;;;;;;;3.80;100.00;96889.59;1025930;29;20262;-52
2021/10/19 01:39:14;;;;;;;55.45;37.30;;;;;;;3.80;100.00;96887.84;1023489;28;20310;-51
2021/10/19 01:39:44;;;;;;;51.05;36.05;;;;;;;3.83;100.00;96886.91;1030579;28;20078;-52
2021/10/19 01:40:16;;;;;;;49.78;35.72;;;;;;;3.82;100.00;96898.19;1033534;28;20101;-51
2021/10/19 01:40:47;;;;;;;58.00;40.17;;;;;;;3.82;100.00;96893.84;1025951;28;20019;-51
2021/10/19 01:41:17;;;;;;;57.00;38.47;;;;;;;3.79;100.00;96891.34;1025858;29;20293;-52
2021/10/19 01:41:48;;;;;;;61.20;40.05;;;;;;;3.78;100.00;96891.38;1021425;29;20848;-51
2021/10/19 01:42:19;;;;;;;68.55;41.08;;;;;;;3.72;100.00;96897.59;1022106;29;20106;-52
2021/10/19 01:42:49;;;;;;;68.05;40.42;;;;;;;3.70;100.00;96892.44;1021764;29;20092;-51
2021/10/19 01:43:22;;;;;;;57.72;37.10;;;;;;;3.73;100.00;96890.66;1033639;28;20420;-50
2021/10/19 01:43:54;;;;;;;63.42;37.95;;;;;;;3.73;100.00;96882.88;1033577;28;20053;-50
2021/10/19 01:44:24;;;;;;;67.68;39.92;;;;;;;3.61;100.00;96876.31;1029730;28;20262;-51
2021/10/19 01:44:55;;;;;;;62.35;38.30;;;;;;;3.66;100.00;96890.84;1026206;28;20626;-52
2021/10/19 01:45:26;;;;;;;66.20;39.17;;;;;;;3.65;100.00;96885.69;1029526;28;20027;-50
2021/10/19 01:45:59;;;;;;;76.82;41.33;;;;;;;3.65;100.00;96885.69;1033746;28;20034;-52
2021/10/19 01:46:30;;;;;;;85.57;44.20;;;;;;;3.61;100.00;96882.34;1029877;28;20026;-51
2021/10/19 01:47:00;;;;;;;45.83;31.95;;;;;;;3.63;100.00;96888.31;1025754;29;20310;-52
2021/10/19 01:47:31;;;;;;;50.90;34.80;;;;;;;3.63;100.00;96890.06;1018111;29;20354;-51
2021/10/19 01:48:02;;;;;;;49.42;34.85;;;;;;;3.60;100.00;96887.56;1021545;29;20028;-52
2021/10/19 01:48:33;;;;;;;60.53;37.72;;;;;;;3.61;100.00;96889.25;1025344;29;20019;-50
2021/10/19 01:49:04;;;;;;;67.00;38.72;;;;;;;3.59;100.00;96888.47;1025734;29;20021;-52
2021/10/19 01:49:34;;;;;;;63.83;39.05;;;;;;;3.58;100.00;96885.00;1029535;28;20713;-51
2021/10/19 01:50:05;;;;;;;59.80;38.38;;;;;;;3.58;100.00;96884.16;1029482;28;20065;-51
2021/10/19 01:50:37;;;;;;;66.65;40.67;;;;;;;3.57;100.00;96887.66;1029315;28;20019;-51
2021/10/19 01:51:08;;;;;;;69.20;40.75;;;;;;;3.53;100.00;96883.44;1033481;28;20381;-51
2021/10/19 01:51:39;;;;;;;78.32;42.90;;;;;;;3.54;100.00;96883.38;1033507;28;20284;-51
2021/10/19 01:52:10;;;;;;;76.78;42.75;;;;;;;3.54;100.00;96888.56;1029583;28;20067;-52
2021/10/19 01:52:41;;;;;;;58.42;37.33;;;;;;;3.52;100.00;96882.59;1021510;29;20694;-52
2021/10/19 01:53:12;;;;;;;63.35;38.90;;;;;;;3.54;100.00;96885.97;1025249;29;20115;-53
2021/10/19 01:53:43;;;;;;;62.45;38.97;;;;;;;3.52;100.00;96881.75;1021513;29;20019;-52
2021/10/19 01:54:13;;;;;;;66.65;39.92;;;;;;;3.51;100.00;96886.09;1029254;28;20030;-51
2021/10/19 01:54:44;;;;;;;69.30;41.85;;;;;;;3.49;100.00;96886.13;1021496;29;20268;-51
2021/10/19 01:55:14;;;;;;;65.00;40.03;;;;;;;3.52;100.00;96892.94;1025316;29;20081;-51
2021/10/19 01:55:45;;;;;;;46.83;34.20;;;;;;;3.53;100.00;96889.47;1025571;29;20030;-51
2021/10/19 01:56:17;;;;;;;49.35;34.95;;;;;;;3.54;100.00;96892.91;1017484;29;20518;-52
2021/10/19 01:56:47;;;;;;;63.60;38.70;;;;;;;3.54;100.00;96883.38;1025793;29;20023;-53
2021/10/19 01:57:18;;;;;;;57.08;37.35;;;;;;;3.55;100.00;96885.09;1033376;28;20296;-51
2021/10/19 01:57:49;;;;;;;57.72;37.20;;;;;;;3.54;100.00;96891.16;1029320;28;20038;-51
2021/10/19 01:58:24;;;;;;;61.67;38.42;;;;;;;3.54;100.00;96888.56;1029510;28;20046;-52
2021/10/19 01:58:55;;;;;;;61.13;39.13;;;;;;;3.53;100.00;96892.06;1022292;29;20099;-51
2021/10/19 01:59:26;;;;;;;58.38;39.15;;;;;;;3.54;100.00;96888.56;1026970;28;20342;-51
2021/10/19 01:59:56;;;;;;;64.28;39.25;;;;;;;3.53;100.00;96889.47;1021383;29;20043;-50
2021/10/19 02:00:27;;;;;;;59.10;38.55;;;;;;;3.51;100.00;96896.44;1024364;28;20110;-49
2021/10/19 02:00:58;;;;;;;64.18;37.88;;;;;;;3.48;100.00;96892.19;1028870;28;20106;-51
2021/10/19 02:01:29;;;;;;;51.83;34.28;;;;;;;3.48;100.00;96891.34;1032702;28;20010;-51
2021/10/19 02:01:59;;;;;;;64.30;38.92;;;;;;;3.45;100.00;96891.41;1020824;29;20334;-52
2021/10/19 02:02:30;;;;;;;60.85;37.78;;;;;;;3.45;100.00;96886.22;1029133;28;20101;-52
2021/10/19 02:03:05;;;;;;;52.75;35.13;;;;;;;3.45;100.00;96881.91;1029131;28;20551;-51
2021/10/19 02:03:36;;;;;;;58.55;37.67;;;;;;;3.47;100.00;96889.63;1029356;28;20150;-52
2021/10/19 02:04:07;;;;;;;61.33;38.45;;;;;;;3.46;100.00;96896.56;1025832;29;20266;-51
2021/10/19 02:04:37;;;;;;;61.92;38.55;;;;;;;3.44;100.00;96889.72;1021269;29;20274;-51
2021/10/19 02:05:09;;;;;;;51.80;34.40;;;;;;;3.44;100.00;96892.31;1021443;29;20030;-52
2021/10/19 02:05:40;;;;;;;61.35;38.58;;;;;;;3.43;100.00;96888.84;1017465;29;20187;-51
2021/10/19 02:06:11;;;;;;;52.22;36.45;;;;;;;3.45;100.00;96894.00;1018565;29;20265;-51
2021/10/19 02:06:42;;;;;;;62.08;38.65;;;;;;;3.43;100.00;96896.63;1022834;28;20638;-52
2021/10/19 02:07:13;;;;;;;56.45;35.88;;;;;;;3.43;100.00;96891.44;1025589;29;20015;-51
2021/10/19 02:07:44;;;;;;;48.15;33.72;;;;;;;3.43;100.00;96891.44;1029431;28;20019;-51
2021/10/19 02:08:14;;;;;;;52.80;35.15;;;;;;;3.42;100.00;96892.34;1025247;29;20058;-52
2021/10/19 02:08:45;;;;;;;56.10;36.33;;;;;;;3.42;100.00;96888.91;1025495;29;20146;-52
2021/10/19 02:09:16;;;;;;;51.92;35.50;;;;;;;3.43;100.00;96894.03;1029331;28;20035;-52
2021/10/19 02:09:47;;;;;;;54.10;35.75;;;;;;;3.45;100.00;96889.69;1021620;29;20338;-51
2021/10/19 02:10:17;;;;;;;46.03;33.03;;;;;;;3.46;100.00;96882.75;1025559;29;20147;-50
2021/10/19 02:10:48;;;;;;;46.95;31.90;;;;;;;3.46;100.00;96887.94;1029120;28;20121;-52
2021/10/19 02:11:19;;;;;;;44.95;32.50;;;;;;;3.44;100.00;96890.56;1025691;28;20007;-50
2021/10/19 02:11:50;;;;;;;70.70;39.97;;;;;;;3.43;100.00;96888.84;1025432;29;20019;-50
2021/10/19 02:12:20;;;;;;;51.70;35.25;;;;;;;3.42;100.00;96886.34;1029429;28;20027;-52
2021/10/19 02:12:51;;;;;;;57.45;37.00;;;;;;;3.43;100.00;96886.25;1033213;28;20022;-51
2021/10/19 02:13:22;;;;;;;40.08;31.15;;;;;;;3.44;100.00;96885.38;1025441;28;20027;-52
2021/10/19 02:13:53;;;;;;;48.88;33.72;;;;;;;3.46;100.00;96882.75;1021408;29;20122;-53
2021/10/19 02:14:23;;;;;;;56.63;35.88;;;;;;;3.45;100.00;96888.81;1021420;29;20086;-51
2021/10/19 02:14:54;;;;;;;40.10;29.73;;;;;;;3.46;100.00;96880.16;1025219;28;20023;-52
2021/10/19 02:15:27;;;;;;;48.75;33.63;;;;;;;3.44;100.00;96881.94;1025115;28;20023;-52
2021/10/19 02:15:58;;;;;;;48.10;32.60;;;;;;;3.41;100.00;96884.63;1026268;28;20023;-51
2021/10/19 02:16:28;;;;;;;49.05;33.55;;;;;;;3.42;100.00;96882.00;1021905;29;20806;-53
2021/10/19 02:16:59;;;;;;;50.13;33.10;;;;;;;3.40;100.00;96878.59;1025687;28;20023;-51
2021/10/19 02:17:30;;;;;;;61.90;37.55;;;;;;;3.38;100.00;96879.50;1028760;28;20022;-51
2021/10/19 02:18:02;;;;;;;56.30;35.97;;;;;;;3.38;100.00;96870.00;1026162;28;20543;-51
2021/10/19 02:18:32;;;;;;;47.58;34.72;;;;;;;3.41;100.00;96871.66;1033314;28;20024;-51
2021/10/19 02:19:03;;;;;;;47.63;33.38;;;;;;;3.39;100.00;96876.03;1025631;28;20269;-52
2021/10/19 02:19:34;;;;;;;54.17;36.67;;;;;;;3.40;100.00;96878.59;1025113;29;20027;-51
2021/10/19 02:20:05;;;;;;;53.33;35.60;;;;;;;3.39;100.00;96873.44;1022053;29;20019;-53
2021/10/19 02:20:36;;;;;;;55.22;35.65;;;;;;;3.39;100.00;96865.69;1022109;28;20026;-52
2021/10/19 02:21:07;;;;;;;48.88;33.35;;;;;;;3.37;100.00;96868.31;1029520;28;20286;-52
2021/10/19 02:21:38;;;;;;;60.75;36.75;;;;;;;3.36;100.00;96868.34;1025252;29;20259;-50
2021/10/19 02:22:09;;;;;;;50.67;34.00;;;;;;;3.38;100.00;96862.25;1029431;28;20050;-52
2021/10/19 02:22:40;;;;;;;57.83;36.95;;;;;;;3.41;100.00;96869.91;1025417;29;20491;-52